createdAt,value
2023-03-05T00:01:54.843Z,101668.09
2023-03-05T00:04:21.665Z,101669.06
2023-03-05T00:06:47.989Z,101654.91
2023-03-05T00:09:14.644Z,101667.31
2023-03-05T00:11:41.078Z,101662.09
2023-03-05T00:14:07.983Z,101667.13
2023-03-05T00:16:34.711Z,101663.75
2023-03-05T00:19:01.740Z,101658.63
2023-03-05T00:21:37.850Z,101658.75
2023-03-05T00:24:08.084Z,101662.69
2023-03-05T00:26:38.854Z,101651.97
2023-03-05T00:29:06.595Z,101657.50
2023-03-05T00:31:35.363Z,101646.09
2023-03-05T00:34:13.809Z,101651.19
2023-03-05T00:36:45.941Z,101649.25
2023-03-05T00:39:13.508Z,101645.03
2023-03-05T00:41:40.362Z,101648.06
2023-03-05T00:44:07.060Z,101649.84
2023-03-05T00:46:33.856Z,101649.78
2023-03-05T00:49:00.581Z,101649.66
2023-03-05T00:51:27.376Z,101637.97
2023-03-05T00:53:54.266Z,101648.78
2023-03-05T00:56:20.611Z,101641.50
2023-03-05T00:58:47.453Z,101630.41
2023-03-05T01:01:14.381Z,101637.31
2023-03-05T01:03:40.800Z,101634.84
2023-03-05T01:06:10.852Z,101635.13
2023-03-05T01:08:38.329Z,101635.13
2023-03-05T01:11:05.841Z,101631.69
2023-03-05T01:13:32.464Z,101635.31
2023-03-05T01:15:58.872Z,101628.81
2023-03-05T01:18:25.264Z,101626.38
2023-03-05T01:20:51.607Z,101617.44
2023-03-05T01:23:18.727Z,101615.56
2023-03-05T01:25:45.071Z,101610.47
2023-03-05T01:28:11.764Z,101608.13
2023-03-05T01:30:38.183Z,101614.53
2023-03-05T01:33:04.689Z,101612.75
2023-03-05T01:35:31.224Z,101609.41
2023-03-05T01:37:57.783Z,101611.56
2023-03-05T01:40:27.268Z,101609.19
2023-03-05T01:43:08.582Z,101603.19
2023-03-05T01:45:35.524Z,101593.19
2023-03-05T01:48:02.204Z,101594.09
2023-03-05T01:50:29.146Z,101589.09
2023-03-05T01:53:07.164Z,101593.28
2023-03-05T01:55:36.984Z,101591.66
2023-03-05T01:58:06.592Z,101581.94
2023-03-05T02:00:37.802Z,101580.91
2023-03-05T02:03:07.507Z,101571.13
2023-03-05T02:05:36.391Z,101565.84
2023-03-05T02:08:05.900Z,101567.19
2023-03-05T02:10:36.289Z,101566.31
2023-03-05T02:13:06.590Z,101554.44
2023-03-05T02:15:33.560Z,101556.41
2023-03-05T02:18:01.544Z,101549.44
2023-03-05T02:20:31.655Z,101546.41
2023-03-05T02:22:58.186Z,101545.63
2023-03-05T02:25:28.048Z,101549.63
2023-03-05T02:28:02.365Z,101550.41
2023-03-05T02:30:29.362Z,101550.22
2023-03-05T02:32:55.699Z,101548.75
2023-03-05T02:35:22.242Z,101548.75
2023-03-05T02:37:49.062Z,101542.56
2023-03-05T02:40:16.488Z,101540.81
2023-03-05T02:42:43.255Z,101539.91
2023-03-05T02:45:10.891Z,101536.88
2023-03-05T02:47:37.272Z,101528.66
2023-03-05T02:50:05.104Z,101526.00
2023-03-05T02:52:31.962Z,101523.44
2023-03-05T02:54:58.399Z,101526.00
2023-03-05T02:57:24.753Z,101514.13
2023-03-05T02:59:51.700Z,101513.47
2023-03-05T03:02:18.058Z,101508.16
2023-03-05T03:04:45.105Z,101508.06
2023-03-05T03:07:13.204Z,101502.88
2023-03-05T03:09:39.911Z,101503.16
2023-03-05T03:12:07.052Z,101495.50
2023-03-05T03:14:39.286Z,101498.75
2023-03-05T03:17:11.553Z,101495.22
2023-03-05T03:19:38.520Z,101495.03
2023-03-05T03:22:05.660Z,101487.28
2023-03-05T03:24:33.070Z,101487.28
2023-03-05T03:26:59.422Z,101494.41
2023-03-05T03:29:25.967Z,101480.69
2023-03-05T03:31:52.329Z,101488.34
2023-03-05T03:34:19.240Z,101487.38
2023-03-05T03:36:46.897Z,101479.53
2023-03-05T03:39:15.013Z,101476.16
2023-03-05T03:41:43.263Z,101471.88
2023-03-05T03:44:10.704Z,101470.78
2023-03-05T03:46:39.255Z,101470.78
2023-03-05T03:49:06.928Z,101471.16
2023-03-05T03:51:33.257Z,101463.44
2023-03-05T03:54:00.424Z,101459.91
2023-03-05T03:56:26.962Z,101453.34
2023-03-05T03:58:54.398Z,101452.25
2023-03-05T04:01:21.801Z,101450.00
2023-03-05T04:03:48.326Z,101451.59
2023-03-05T04:06:14.843Z,101441.50
2023-03-05T04:08:41.349Z,101445.88
2023-03-05T04:11:08.039Z,101451.97
2023-03-05T04:13:34.684Z,101452.28
2023-03-05T04:16:01.209Z,101445.59
2023-03-05T04:18:27.762Z,101438.47
2023-03-05T04:20:54.132Z,101446.59
2023-03-05T04:23:20.687Z,101447.38
2023-03-05T04:25:47.041Z,101444.63
2023-03-05T04:28:13.546Z,101448.84
2023-03-05T04:30:39.871Z,101436.59
2023-03-05T04:33:06.464Z,101434.16
2023-03-05T04:35:32.906Z,101438.56
2023-03-05T04:37:59.425Z,101438.34
2023-03-05T04:40:25.848Z,101424.81
2023-03-05T04:42:52.361Z,101429.72
2023-03-05T04:45:18.785Z,101419.91
2023-03-05T04:47:45.390Z,101417.09
2023-03-05T04:50:12.869Z,101409.91
2023-03-05T04:52:41.577Z,101418.28
2023-03-05T04:55:08.663Z,101405.63
2023-03-05T04:57:35.935Z,101398.56
2023-03-05T05:00:06.804Z,101400.44
2023-03-05T05:02:34.213Z,101391.03
2023-03-05T05:05:00.610Z,101397.19
2023-03-05T05:07:27.069Z,101406.78
2023-03-05T05:09:53.395Z,101403.28
2023-03-05T05:12:19.896Z,101387.19
2023-03-05T05:14:46.225Z,101381.31
2023-03-05T05:17:12.574Z,101377.09
2023-03-05T05:19:39.029Z,101386.59
2023-03-05T05:22:05.454Z,101379.06
2023-03-05T05:24:31.963Z,101375.63
2023-03-05T05:26:58.315Z,101383.47
2023-03-05T05:29:24.712Z,101376.41
2023-03-05T05:31:51.091Z,101382.47
2023-03-05T05:34:17.600Z,101378.66
2023-03-05T05:36:43.969Z,101374.25
2023-03-05T05:39:11.005Z,101381.78
2023-03-05T05:41:37.332Z,101380.72
2023-03-05T05:44:03.885Z,101383.00
2023-03-05T05:46:30.517Z,101375.84
2023-03-05T05:48:57.033Z,101382.69
2023-03-05T05:51:24.214Z,101381.03
2023-03-05T05:53:51.063Z,101380.84
2023-03-05T05:56:18.762Z,101380.84
2023-03-05T05:58:47.690Z,101378.38
2023-03-05T06:01:21.278Z,101379.25
2023-03-05T06:03:47.777Z,101388.97
2023-03-05T06:06:16.666Z,101386.69
2023-03-05T06:08:43.499Z,101380.94
2023-03-05T06:11:10.116Z,101387.47
2023-03-05T06:13:37.230Z,101385.44
2023-03-05T06:16:07.292Z,101382.78
2023-03-05T06:18:35.129Z,101375.16
2023-03-05T06:21:04.459Z,101379.25
2023-03-05T06:23:31.188Z,101376.50
2023-03-05T06:26:02.810Z,101371.31
2023-03-05T06:28:29.542Z,101366.91
2023-03-05T06:31:11.179Z,101371.91
2023-03-05T06:33:38.628Z,101368.19
2023-03-05T06:36:10.805Z,101370.84
2023-03-05T06:38:38.226Z,101377.91
2023-03-05T06:41:09.195Z,101378.00
2023-03-05T06:43:38.467Z,101378.84
2023-03-05T06:46:13.148Z,101381.78
2023-03-05T06:48:40.054Z,101381.91
2023-03-05T06:51:16.767Z,101379.97
2023-03-05T06:53:44.492Z,101384.91
2023-03-05T06:56:10.972Z,101376.41
2023-03-05T06:58:37.466Z,101373.47
2023-03-05T07:01:06.714Z,101366.09
2023-03-05T07:03:35.149Z,101358.38
2023-03-05T07:06:10.382Z,101365.25
2023-03-05T07:08:37.378Z,101379.22
2023-03-05T07:11:04.444Z,101371.50
2023-03-05T07:13:30.849Z,101378.16
2023-03-05T07:15:57.284Z,101383.06
2023-03-05T07:18:23.772Z,101379.13
2023-03-05T07:20:50.098Z,101373.44
2023-03-05T07:23:16.522Z,101367.56
2023-03-05T07:25:42.855Z,101368.94
2023-03-05T07:28:10.543Z,101363.53
2023-03-05T07:30:36.968Z,101367.00
2023-03-05T07:33:03.403Z,101367.56
2023-03-05T07:35:29.762Z,101370.19
2023-03-05T07:37:56.169Z,101372.84
2023-03-05T07:40:22.556Z,101374.81
2023-03-05T07:42:48.920Z,101374.41
2023-03-05T07:45:15.251Z,101372.91
2023-03-05T07:47:41.608Z,101374.50
2023-03-05T07:50:08.753Z,101371.13
2023-03-05T07:52:35.140Z,101374.28
2023-03-05T07:55:01.491Z,101362.56
2023-03-05T07:57:27.956Z,101364.53
2023-03-05T07:59:54.779Z,101363.72
2023-03-05T08:02:21.633Z,101363.28
2023-03-05T08:04:48.101Z,101366.03
2023-03-05T08:07:16.132Z,101362.25
2023-03-05T08:09:42.846Z,101357.31
2023-03-05T08:12:10.392Z,101346.69
2023-03-05T08:14:37.757Z,101350.31
2023-03-05T08:17:05.662Z,101344.53
2023-03-05T08:19:33.019Z,101340.53
2023-03-05T08:21:59.481Z,101348.78
2023-03-05T08:24:29.495Z,101346.56
2023-03-05T08:26:57.588Z,101343.41
2023-03-05T08:29:24.824Z,101334.50
2023-03-05T08:31:53.590Z,101335.72
2023-03-05T08:34:20.989Z,101324.97
2023-03-05T08:36:47.643Z,101331.41
2023-03-05T08:39:13.963Z,101330.53
2023-03-05T08:41:40.339Z,101331.66
2023-03-05T08:44:07.087Z,101329.28
2023-03-05T08:46:33.689Z,101331.91
2023-03-05T08:49:00.373Z,101320.06
2023-03-05T08:51:27.514Z,101315.63
2023-03-05T08:53:56.020Z,101324.47
2023-03-05T08:56:22.391Z,101311.56
2023-03-05T08:58:48.804Z,101308.41
2023-03-05T09:01:15.484Z,101312.59
2023-03-05T09:03:42.103Z,101305.13
2023-03-05T09:06:10.953Z,101303.41
2023-03-05T09:08:37.297Z,101303.72
2023-03-05T09:11:06.016Z,101295.00
2023-03-05T09:13:32.948Z,101291.41
2023-03-05T09:16:06.034Z,101281.81
2023-03-05T09:18:32.653Z,101290.19
2023-03-05T09:21:03.759Z,101288.44
2023-03-05T09:23:30.098Z,101292.81
2023-03-05T09:25:56.582Z,101282.75
2023-03-05T09:28:22.922Z,101285.59
2023-03-05T09:30:49.294Z,101283.34
2023-03-05T09:33:15.671Z,101279.88
2023-03-05T09:35:42.314Z,101276.28
2023-03-05T09:38:08.690Z,101277.19
2023-03-05T09:40:47.364Z,101269.47
2023-03-05T09:43:31.470Z,101271.03
2023-03-05T09:46:07.199Z,101263.38
2023-03-05T09:48:48.382Z,101262.25
2023-03-05T09:51:22.392Z,101269.13
2023-03-05T09:54:01.653Z,101264.25
2023-03-05T09:56:35.914Z,101263.84
2023-03-05T09:59:21.190Z,101259.00
2023-03-05T10:01:50.411Z,101270.50
2023-03-05T10:04:34.078Z,101262.19
2023-03-05T10:07:18.570Z,101262.72
2023-03-05T10:09:51.048Z,101282.47
2023-03-05T10:12:39.019Z,101277.13
2023-03-05T10:15:13.287Z,101272.81
2023-03-05T10:17:55.110Z,101270.91
2023-03-05T10:20:33.829Z,101274.22
2023-03-05T10:23:24.596Z,101271.75
2023-03-05T10:26:28.684Z,101267.59
2023-03-05T10:29:17.654Z,101272.34
2023-03-05T10:32:03.895Z,101264.66
2023-03-05T10:35:07.363Z,101257.69
2023-03-05T10:37:48.800Z,101254.91
2023-03-05T10:40:36.161Z,101249.31
2023-03-05T10:43:20.700Z,101254.66
2023-03-05T10:45:52.857Z,101235.81
2023-03-05T10:48:40.925Z,101234.00
2023-03-05T10:51:40.410Z,101233.88
2023-03-05T10:54:29.554Z,101219.34
2023-03-05T10:57:19.391Z,101222.53
2023-03-05T10:59:54.647Z,101212.34
2023-03-05T11:02:22.669Z,101203.47
2023-03-05T11:04:50.269Z,101204.09
2023-03-05T11:07:16.708Z,101212.88
2023-03-05T11:10:04.238Z,101202.75
2023-03-05T11:12:33.868Z,101200.31
2023-03-05T11:15:09.106Z,101197.91
2023-03-05T11:18:04.385Z,101192.22
2023-03-05T11:20:35.465Z,101187.72
2023-03-05T11:23:05.589Z,101189.16
2023-03-05T11:25:34.339Z,101195.03
2023-03-05T11:28:02.770Z,101192.59
2023-03-05T11:30:32.445Z,101189.34
2023-03-05T11:33:20.571Z,101188.31
2023-03-05T11:35:48.136Z,101187.91
2023-03-05T11:38:25.651Z,101179.28
2023-03-05T11:40:53.856Z,101176.50
2023-03-05T11:43:23.348Z,101171.97
2023-03-05T11:45:53.771Z,101173.03
2023-03-05T11:48:26.691Z,101171.97
2023-03-05T11:50:57.617Z,101156.97
2023-03-05T11:53:28.362Z,101152.19
2023-03-05T11:56:01.587Z,101142.03
2023-03-05T11:58:46.549Z,101143.56
2023-03-05T12:01:19.384Z,101153.34
2023-03-05T12:03:46.024Z,101140.16
2023-03-05T12:06:37.656Z,101135.63
2023-03-05T12:09:25.762Z,101126.81
2023-03-05T12:12:00.746Z,101136.13
2023-03-05T12:14:42.091Z,101139.31
2023-03-05T12:17:18.749Z,101133.13
2023-03-05T12:20:05.089Z,101137.22
2023-03-05T12:22:38.437Z,101134.19
2023-03-05T12:25:25.912Z,101135.66
2023-03-05T12:27:52.461Z,101132.53
2023-03-05T12:30:33.995Z,101128.78
2023-03-05T12:33:02.372Z,101130.22
2023-03-05T12:35:37.745Z,101125.03
2023-03-05T12:38:26.524Z,101131.28
2023-03-05T12:40:53.541Z,101127.78
2023-03-05T12:43:32.217Z,101125.59
2023-03-05T12:46:23.641Z,101116.97
2023-03-05T12:48:50.276Z,101123.44
2023-03-05T12:51:36.019Z,101116.72
2023-03-05T12:54:42.432Z,101114.28
2023-03-05T12:57:22.477Z,101114.47
2023-03-05T13:00:01.405Z,101102.78
2023-03-05T13:02:43.215Z,101101.59
2023-03-05T13:05:23.886Z,101099.13
2023-03-05T13:07:51.111Z,101097.88
2023-03-05T13:10:28.653Z,101092.25
2023-03-05T13:12:58.544Z,101089.03
2023-03-05T13:15:26.505Z,101080.94
2023-03-05T13:18:03.479Z,101073.19
2023-03-05T13:20:33.972Z,101061.53
2023-03-05T13:23:17.030Z,101063.25
2023-03-05T13:26:04.172Z,101061.78
2023-03-05T13:28:32.662Z,101060.97
2023-03-05T13:31:02.593Z,101053.09
2023-03-05T13:33:34.681Z,101053.09
2023-03-05T13:36:02.153Z,101055.31
2023-03-05T13:38:31.642Z,101048.16
2023-03-05T13:41:11.847Z,101040.03
2023-03-05T13:43:57.971Z,101042.66
2023-03-05T13:46:30.623Z,101047.78
2023-03-05T13:48:58.622Z,101045.56
2023-03-05T13:51:41.166Z,101037.19
2023-03-05T13:54:10.950Z,101040.28
2023-03-05T13:56:37.287Z,101030.44
2023-03-05T13:59:03.661Z,101029.44
2023-03-05T14:01:41.976Z,101022.28
2023-03-05T14:04:23.461Z,101028.41
2023-03-05T14:07:03.528Z,101029.72
2023-03-05T14:09:43.014Z,101030.50
2023-03-05T14:12:34.231Z,101027.34
2023-03-05T14:15:02.347Z,101025.78
2023-03-05T14:17:42.836Z,101019.78
2023-03-05T14:20:24.542Z,101015.19
2023-03-05T14:22:57.846Z,101012.69
2023-03-05T14:25:30.073Z,101011.97
2023-03-05T14:27:57.823Z,101012.69
2023-03-05T14:30:24.899Z,101004.50
2023-03-05T14:32:54.775Z,101001.72
2023-03-05T14:35:26.265Z,100995.50
2023-03-05T14:37:55.313Z,100981.84
2023-03-05T14:40:27.263Z,100987.44
2023-03-05T14:43:02.270Z,100985.53
2023-03-05T14:45:30.061Z,100973.81
2023-03-05T14:48:00.215Z,100973.16
2023-03-05T14:50:32.063Z,100978.53
2023-03-05T14:53:01.646Z,100977.78
2023-03-05T14:55:31.821Z,100963.31
2023-03-05T14:58:04.294Z,100963.03
2023-03-05T15:00:31.369Z,100963.16
2023-03-05T15:02:58.103Z,100961.47
2023-03-05T15:05:24.887Z,100957.28
2023-03-05T15:07:52.103Z,100957.91
2023-03-05T15:10:23.068Z,100965.38
2023-03-05T15:12:53.369Z,100964.25
2023-03-05T15:15:21.368Z,100956.91
2023-03-05T15:17:51.685Z,100954.81
2023-03-05T15:20:26.954Z,100942.13
2023-03-05T15:22:54.069Z,100942.88
2023-03-05T15:25:22.781Z,100946.25
2023-03-05T15:27:50.881Z,100943.19
2023-03-05T15:30:32.960Z,100937.38
2023-03-05T15:33:03.412Z,100935.63
2023-03-05T15:35:29.886Z,100936.59
2023-03-05T15:37:56.657Z,100931.09
2023-03-05T15:40:23.671Z,100936.84
2023-03-05T15:42:50.402Z,100934.13
2023-03-05T15:45:17.001Z,100932.34
2023-03-05T15:47:43.425Z,100927.06
2023-03-05T15:50:10.945Z,100928.53
2023-03-05T15:52:37.298Z,100932.56
2023-03-05T15:55:03.993Z,100928.75
2023-03-05T15:57:30.353Z,100915.59
2023-03-05T15:59:56.899Z,100910.34
2023-03-05T16:02:24.629Z,100914.41
2023-03-05T16:04:51.038Z,100910.13
2023-03-05T16:07:17.495Z,100906.31
2023-03-05T16:09:48.252Z,100908.28
2023-03-05T16:12:19.755Z,100894.38
2023-03-05T16:14:46.496Z,100893.88
2023-03-05T16:17:14.679Z,100890.97
2023-03-05T16:19:45.674Z,100891.28
2023-03-05T16:22:12.281Z,100889.16
2023-03-05T16:24:38.654Z,100882.78
2023-03-05T16:27:05.291Z,100880.97
2023-03-05T16:29:32.587Z,100880.91
2023-03-05T16:31:59.468Z,100885.16
2023-03-05T16:34:26.028Z,100885.28
2023-03-05T16:36:53.023Z,100880.81
2023-03-05T16:39:21.049Z,100874.78
2023-03-05T16:41:48.038Z,100875.06
2023-03-05T16:44:14.408Z,100876.75
2023-03-05T16:46:41.899Z,100873.22
2023-03-05T16:49:08.636Z,100879.75
2023-03-05T16:51:35.578Z,100878.06
2023-03-05T16:54:02.218Z,100879.28
2023-03-05T16:56:29.725Z,100877.84
2023-03-05T16:58:56.435Z,100874.88
2023-03-05T17:01:23.670Z,100873.72
2023-03-05T17:03:50.578Z,100874.34
2023-03-05T17:06:20.538Z,100874.50
2023-03-05T17:08:47.339Z,100864.94
2023-03-05T17:11:14.489Z,100862.38
2023-03-05T17:13:41.936Z,100863.78
2023-03-05T17:16:11.053Z,100855.47
2023-03-05T17:18:37.695Z,100856.47
2023-03-05T17:21:05.534Z,100853.13
2023-03-05T17:23:31.939Z,100848.81
2023-03-05T17:25:58.356Z,100852.50
2023-03-05T17:28:25.648Z,100845.41
2023-03-05T17:30:51.991Z,100844.75
2023-03-05T17:33:18.366Z,100839.88
2023-03-05T17:35:47.337Z,100834.19
2023-03-05T17:38:13.816Z,100835.63
2023-03-05T17:40:40.551Z,100835.34
2023-03-05T17:43:06.902Z,100836.03
2023-03-05T17:45:35.318Z,100837.44
2023-03-05T17:48:01.874Z,100833.91
2023-03-05T17:50:28.440Z,100832.81
2023-03-05T17:52:55.239Z,100821.56
2023-03-05T17:55:24.032Z,100825.59
2023-03-05T17:57:50.509Z,100821.41
2023-03-05T18:00:25.135Z,100823.03
2023-03-05T18:02:52.582Z,100820.56
2023-03-05T18:05:22.445Z,100822.31
2023-03-05T18:07:49.278Z,100812.81
2023-03-05T18:10:16.433Z,100810.41
2023-03-05T18:12:42.969Z,100806.41
2023-03-05T18:15:11.765Z,100810.06
2023-03-05T18:17:38.373Z,100805.69
2023-03-05T18:20:05.406Z,100807.97
2023-03-05T18:22:31.748Z,100807.31
2023-03-05T18:24:58.190Z,100797.75
2023-03-05T18:27:24.907Z,100791.97
2023-03-05T18:29:53.976Z,100798.09
2023-03-05T18:32:24.063Z,100784.38
2023-03-05T18:34:50.780Z,100781.19
2023-03-05T18:37:17.401Z,100783.41
2023-03-05T18:39:43.788Z,100782.91
2023-03-05T18:42:14.169Z,100773.91
2023-03-05T18:44:41.445Z,100774.09
2023-03-05T18:47:07.819Z,100763.91
2023-03-05T18:49:34.269Z,100764.69
2023-03-05T18:52:00.675Z,100760.47
2023-03-05T18:54:27.274Z,100757.53
2023-03-05T18:56:53.645Z,100754.75
2023-03-05T18:59:20.048Z,100750.09
2023-03-05T19:01:46.397Z,100750.75
2023-03-05T19:04:12.828Z,100746.03
2023-03-05T19:06:39.250Z,100741.03
2023-03-05T19:09:12.108Z,100746.13
2023-03-05T19:11:38.442Z,100733.44
2023-03-05T19:14:04.983Z,100739.19
2023-03-05T19:16:38.149Z,100737.72
2023-03-05T19:19:15.469Z,100731.97
2023-03-05T19:21:53.560Z,100730.75
2023-03-05T19:24:21.317Z,100724.91
2023-03-05T19:26:47.991Z,100727.16
2023-03-05T19:29:15.388Z,100721.88
2023-03-05T19:31:41.958Z,100722.03
2023-03-05T19:34:08.703Z,100713.56
2023-03-05T19:36:35.507Z,100717.38
2023-03-05T19:39:06.017Z,100710.91
2023-03-05T19:41:32.752Z,100701.63
2023-03-05T19:43:59.288Z,100702.44
2023-03-05T19:46:25.718Z,100701.25
2023-03-05T19:48:52.287Z,100710.19
2023-03-05T19:51:21.480Z,100706.88
2023-03-05T19:53:48.223Z,100703.94
2023-03-05T19:56:16.371Z,100689.69
2023-03-05T19:58:46.428Z,100688.97
2023-03-05T20:01:25.811Z,100692.53
2023-03-05T20:03:55.169Z,100708.66
2023-03-05T20:06:22.463Z,100702.94
2023-03-05T20:08:49.456Z,100702.16
2023-03-05T20:11:17.594Z,100691.97
2023-03-05T20:13:44.506Z,100693.16
2023-03-05T20:16:23.256Z,100693.06
2023-03-05T20:18:52.724Z,100688.84
2023-03-05T20:21:23.154Z,100683.66
2023-03-05T20:23:51.036Z,100678.72
2023-03-05T20:26:17.584Z,100672.63
2023-03-05T20:28:44.048Z,100671.41
2023-03-05T20:31:10.724Z,100669.91
2023-03-05T20:33:37.795Z,100662.50
2023-03-05T20:36:04.648Z,100667.91
2023-03-05T20:38:31.847Z,100669.75
2023-03-05T20:41:05.357Z,100666.16
2023-03-05T20:43:37.745Z,100662.28
2023-03-05T20:46:04.728Z,100660.50
2023-03-05T20:48:33.434Z,100661.69
2023-03-05T20:51:11.156Z,100653.09
2023-03-05T20:53:37.522Z,100650.00
2023-03-05T20:56:04.024Z,100653.56
2023-03-05T20:58:30.418Z,100653.75
2023-03-05T21:00:56.876Z,100639.28
2023-03-05T21:03:25.507Z,100638.53
2023-03-05T21:05:51.971Z,100640.28
2023-03-05T21:08:18.368Z,100646.91
2023-03-05T21:10:44.706Z,100641.72
2023-03-05T21:13:11.220Z,100638.75
2023-03-05T21:15:40.495Z,100635.03
2023-03-05T21:18:07.039Z,100640.03
2023-03-05T21:20:33.620Z,100632.25
2023-03-05T21:23:00.144Z,100635.50
2023-03-05T21:25:29.437Z,100632.31
2023-03-05T21:28:02.148Z,100629.06
2023-03-05T21:30:39.804Z,100629.94
2023-03-05T21:33:09.716Z,100625.63
2023-03-05T21:35:36.545Z,100623.66
2023-03-05T21:38:04.839Z,100615.38
2023-03-05T21:40:32.268Z,100616.38
2023-03-05T21:42:58.633Z,100613.53
2023-03-05T21:45:27.481Z,100611.53
2023-03-05T21:47:56.083Z,100608.13
2023-03-05T21:50:24.512Z,100612.97
2023-03-05T21:52:51.613Z,100607.53
2023-03-05T21:55:22.541Z,100606.66
2023-03-05T21:57:49.258Z,100608.41
2023-03-05T22:00:18.108Z,100611.19
2023-03-05T22:02:45.939Z,100606.00
2023-03-05T22:05:15.451Z,100609.13
2023-03-05T22:07:42.609Z,100607.53
2023-03-05T22:10:14.743Z,100593.91
2023-03-05T22:12:53.071Z,100592.25
2023-03-05T22:15:20.658Z,100599.75
2023-03-05T22:17:47.122Z,100595.50
2023-03-05T22:20:13.546Z,100596.06
2023-03-05T22:22:40.418Z,100591.47
2023-03-05T22:25:08.101Z,100586.38
2023-03-05T22:27:34.494Z,100578.66
2023-03-05T22:30:00.827Z,100582.38
2023-03-05T22:32:27.301Z,100587.63
2023-03-05T22:34:56.550Z,100583.19
2023-03-05T22:37:22.920Z,100582.31
2023-03-05T22:39:53.645Z,100580.56
2023-03-05T22:42:20.139Z,100588.44
2023-03-05T22:44:46.528Z,100592.25
2023-03-05T22:47:12.939Z,100587.00
2023-03-05T22:49:39.292Z,100585.38
2023-03-05T22:52:05.883Z,100586.19
2023-03-05T22:54:32.842Z,100583.63
2023-03-05T22:56:59.238Z,100575.69
2023-03-05T22:59:25.570Z,100580.09
2023-03-05T23:01:51.953Z,100581.69
2023-03-05T23:04:36.754Z,100581.13
2023-03-05T23:07:03.292Z,100568.47
2023-03-05T23:09:29.633Z,100577.38
2023-03-05T23:11:56.010Z,100565.91
2023-03-05T23:14:22.342Z,100561.84
2023-03-05T23:16:48.855Z,100565.53
2023-03-05T23:19:15.184Z,100557.97
2023-03-05T23:21:41.550Z,100559.16
2023-03-05T23:24:08.274Z,100560.38
2023-03-05T23:26:34.760Z,100557.28
2023-03-05T23:29:01.099Z,100548.34
2023-03-05T23:31:27.566Z,100553.44
2023-03-05T23:33:53.953Z,100555.06
2023-03-05T23:36:24.779Z,100552.19
2023-03-05T23:38:57.426Z,100558.06
2023-03-05T23:41:23.890Z,100559.22
2023-03-05T23:43:50.230Z,100553.72
2023-03-05T23:46:16.623Z,100557.97
2023-03-05T23:48:43.019Z,100554.31
2023-03-05T23:51:10.537Z,100553.00
2023-03-05T23:53:37.542Z,100549.63
2023-03-05T23:56:10.164Z,100559.03
2023-03-05T23:58:37.781Z,100555.22
